Time;durP1;ratioP1;P1;durP2;ratioP2;P2;SDS_P1;SDS_P2;PMS_P1;PMS_P2;Temp;Humidity;BMP_temperature;BMP_pressure;BME280_temperature;BME280_humidity;BME280_pressure;Samples;Min_cycle;Max_cycle;Signal;HPM_P1;HPM_P2
2021/12/09 00:00:00;;;;;;;17.85;8.30;;;-0.80;99.90;;;-1.43;100.00;96467.88;173868;28;1566;-77
2021/12/09 00:00:20;;;;;;;18.40;8.23;;;-0.80;99.90;;;-1.38;100.00;96476.19;173566;28;1666;-77
2021/12/09 00:00:37;;;;;;;18.35;7.90;;;-0.80;99.90;;;-1.31;100.00;96479.13;173128;28;1457;-77
2021/12/09 00:00:47;;;;;;;17.79;7.53;;;-0.80;99.90;;;-1.37;100.00;96469.94;173156;28;1377;-77
2021/12/09 00:01:02;;;;;;;17.34;7.84;;;-0.90;99.90;;;-1.38;100.00;96475.38;175062;28;1504;-77
2021/12/09 00:01:07;;;;;;;17.38;7.91;;;-0.90;99.90;;;-1.45;100.00;96461.06;175105;28;1430;-77
2021/12/09 00:01:25;;;;;;;18.30;8.23;;;-0.90;99.90;;;-1.40;100.00;96464.94;173443;28;1270;-77
2021/12/09 00:01:38;;;;;;;17.08;8.02;;;-0.80;99.90;;;-1.36;100.00;96470.78;174489;28;1249;-78
2021/12/09 00:01:50;;;;;;;16.85;7.47;;;-0.80;99.90;;;-1.40;100.00;96469.41;174227;28;1545;-78
2021/12/09 00:01:56;;;;;;;18.13;7.32;;;-0.80;99.90;;;-1.46;100.00;96454.94;173510;28;1725;-77
2021/12/09 00:02:02;;;;;;;17.38;7.60;;;-0.80;99.90;;;-1.40;100.00;96464.13;173767;28;1358;-77
2021/12/09 00:02:12;;;;;;;17.67;8.10;;;-0.80;99.90;;;-1.34;100.00;96471.47;174575;28;1250;-77
2021/12/09 00:02:20;;;;;;;16.49;8.04;;;-0.90;99.90;;;-1.31;100.00;96482.59;174342;28;1480;-76
2021/12/09 00:02:30;;;;;;;16.60;8.37;;;-0.90;99.90;;;-1.40;100.00;96469.41;173120;28;1334;-77
2021/12/09 00:02:36;;;;;;;16.55;8.25;;;-0.80;99.90;;;-1.38;100.00;96468.28;174392;28;1557;-77
2021/12/09 00:02:43;;;;;;;15.80;8.07;;;-0.80;99.90;;;-1.30;100.00;96478.16;173868;28;953;-78
2021/12/09 00:02:49;;;;;;;16.88;8.16;;;-0.80;99.90;;;-1.36;100.00;96468.16;172755;28;1201;-78
2021/12/09 00:02:56;;;;;;;18.93;8.03;;;-0.90;99.90;;;-1.38;100.00;96463.00;172713;28;1425;-78
2021/12/09 00:03:06;;;;;;;18.97;7.83;;;-0.80;99.90;;;-1.35;100.00;96472.47;172929;28;1494;-77
2021/12/09 00:03:13;;;;;;;20.50;7.97;;;-0.80;99.90;;;-1.31;100.00;96477.31;173837;28;1386;-77
2021/12/09 00:03:19;;;;;;;19.47;8.17;;;-0.80;99.90;;;-1.30;100.00;96476.34;173488;28;1320;-77
2021/12/09 00:03:28;;;;;;;16.45;7.85;;;-0.80;99.90;;;-1.35;100.00;96467.19;173777;28;1437;-77
2021/12/09 00:03:40;;;;;;;17.30;8.07;;;-0.80;99.90;;;-1.37;100.00;96463.84;173173;28;1460;-77
2021/12/09 00:03:48;;;;;;;17.69;8.18;;;-0.80;99.90;;;-1.39;100.00;96453.41;172525;28;1236;-77
2021/12/09 00:04:06;;;;;;;17.83;8.10;;;-0.80;99.90;;;-1.37;100.00;96458.56;173515;28;1071;-76
2021/12/09 00:04:16;;;;;;;16.54;7.76;;;-0.80;99.90;;;-1.32;100.00;96462.44;173198;28;1257;-77
2021/12/09 00:04:29;;;;;;;15.30;7.40;;;-0.80;99.90;;;-1.64;100.00;96414.38;172869;28;1202;-77
2021/12/09 00:04:35;;;;;;;16.36;7.97;;;-0.80;99.90;;;-1.33;100.00;96457.31;171806;28;1528;-78
2021/12/09 00:04:41;;;;;;;16.25;8.10;;;-0.80;99.90;;;-1.29;100.00;96467.44;174477;28;1250;-77
2021/12/09 00:04:48;;;;;;;17.17;8.07;;;-0.80;99.90;;;-1.39;100.00;96450.78;174443;28;1042;-77
2021/12/09 00:04:56;;;;;;;16.06;7.86;;;-0.80;99.90;;;-1.24;100.00;96474.13;173274;28;910;-78
2021/12/09 00:05:02;;;;;;;17.05;7.93;;;-0.80;99.90;;;-1.38;100.00;96454.25;172749;28;1152;-78
2021/12/09 00:05:14;;;;;;;17.90;7.90;;;-0.80;99.90;;;-1.31;100.00;96455.38;172682;28;1460;-78
2021/12/09 00:05:20;;;;;;;17.12;7.90;;;-0.80;99.90;;;-1.28;100.00;96463.00;174572;28;1086;-78
2021/12/09 00:05:28;;;;;;;17.93;8.10;;;-0.80;99.90;;;-1.35;100.00;96451.34;173656;28;1386;-77
2021/12/09 00:05:36;;;;;;;17.43;7.90;;;-0.80;99.90;;;-1.26;100.00;96465.50;173767;28;1412;-77
2021/12/09 00:05:44;;;;;;;16.68;8.02;;;-0.80;99.90;;;-1.56;100.00;96416.34;173495;28;1337;-78
2021/12/09 00:05:50;;;;;;;16.02;7.68;;;-0.80;99.90;;;-1.24;100.00;96463.56;173106;28;1475;-78
2021/12/09 00:05:57;;;;;;;15.48;7.22;;;-0.80;99.90;;;-1.20;100.00;96471.06;172465;28;793;-78
2021/12/09 00:06:05;;;;;;;15.80;7.23;;;-0.80;99.90;;;-1.27;100.00;96469.13;172365;28;1501;-78
2021/12/09 00:06:12;;;;;;;17.63;7.33;;;-0.80;99.90;;;-1.35;100.00;96446.06;173130;28;1447;-78
2021/12/09 00:06:23;;;;;;;18.06;7.46;;;-0.80;99.90;;;-1.27;100.00;96463.84;173112;28;1582;-78
2021/12/09 00:06:31;;;;;;;16.96;7.29;;;-0.80;99.90;;;-1.31;100.00;96460.66;174439;28;1584;-78
2021/12/09 00:06:39;;;;;;;17.62;7.58;;;-0.80;99.90;;;-1.23;100.00;96468.69;172252;28;1366;-78
2021/12/09 00:06:46;;;;;;;18.05;7.73;;;-0.80;99.90;;;-1.28;100.00;96463.00;173658;28;1381;-78
2021/12/09 00:06:54;;;;;;;18.33;7.70;;;-0.80;99.90;;;-1.29;100.00;96458.69;174510;28;1243;-78
2021/12/09 00:07:01;;;;;;;18.82;7.82;;;-0.80;99.90;;;-1.26;100.00;96466.34;173727;28;1165;-78
2021/12/09 00:07:08;;;;;;;17.03;7.17;;;-0.80;99.90;;;-1.29;100.00;96453.41;173574;28;1456;-77
2021/12/09 00:07:15;;;;;;;17.80;7.47;;;-0.80;99.90;;;-1.21;100.00;96471.19;173159;28;1602;-77
2021/12/09 00:07:22;;;;;;;19.63;7.77;;;-0.80;99.90;;;-1.18;100.00;96477.03;173732;28;1519;-77
2021/12/09 00:07:28;;;;;;;19.60;7.97;;;-0.80;99.90;;;-1.22;100.00;96470.38;174077;28;1084;-77
2021/12/09 00:07:34;;;;;;;20.02;8.20;;;-0.80;99.90;;;-1.31;100.00;96455.38;173126;28;1444;-77
2021/12/09 00:07:42;;;;;;;18.90;8.17;;;-0.70;99.90;;;-1.17;100.00;96475.22;173996;28;1382;-77
2021/12/09 00:07:51;;;;;;;17.95;7.82;;;-0.80;99.90;;;-1.28;100.00;96457.72;173832;28;1464;-78
2021/12/09 00:07:57;;;;;;;17.42;7.72;;;-0.70;99.90;;;-1.25;100.00;96461.91;173639;28;1156;-77
2021/12/09 00:08:05;;;;;;;18.20;7.67;;;-0.70;99.90;;;-1.33;100.00;96446.75;172236;28;1325;-77
2021/12/09 00:08:12;;;;;;;17.39;7.43;;;-0.80;99.90;;;-1.37;100.00;96445.38;173794;28;1405;-77
2021/12/09 00:08:18;;;;;;;16.83;7.33;;;-0.80;99.90;;;-1.40;100.00;96438.53;173207;28;1398;-78
2021/12/09 00:08:28;;;;;;;17.90;7.53;;;-0.70;99.90;;;-1.38;100.00;96430.50;173650;28;1309;-77
2021/12/09 00:08:37;;;;;;;17.93;7.45;;;-0.70;99.90;;;-1.26;100.00;96458.44;173455;28;1283;-77
2021/12/09 00:08:43;;;;;;;18.73;7.93;;;-0.70;99.90;;;-1.18;100.00;96469.09;173823;28;1577;-77
2021/12/09 00:08:48;;;;;;;18.83;7.95;;;-0.70;99.90;;;-1.32;100.00;96451.91;173642;28;1593;-77
2021/12/09 00:09:00;;;;;;;17.25;7.80;;;-0.70;99.90;;;-1.26;100.00;96457.59;173813;28;1764;-78
2021/12/09 00:09:16;;;;;;;15.90;7.61;;;-0.70;99.90;;;-1.23;100.00;96459.94;173073;28;1618;-77
2021/12/09 00:09:23;;;;;;;18.01;7.20;;;-0.70;99.90;;;-1.34;100.00;96447.72;172367;28;1378;-77
2021/12/09 00:09:29;;;;;;;18.17;7.07;;;-0.70;99.90;;;-1.17;100.00;96470.78;173673;28;1382;-77
2021/12/09 00:09:35;;;;;;;18.23;6.97;;;-0.70;99.90;;;-1.34;100.00;96453.81;174414;28;1531;-77
2021/12/09 00:09:41;;;;;;;18.60;7.13;;;-0.70;99.90;;;-1.23;100.00;96463.41;172960;28;1390;-77
2021/12/09 00:09:47;;;;;;;16.50;7.36;;;-0.70;99.90;;;-1.25;100.00;96457.47;173947;28;946;-77
2021/12/09 00:09:54;;;;;;;15.87;7.17;;;-0.70;99.90;;;-1.16;100.00;96476.91;172993;28;1076;-78
2021/12/09 00:10:02;;;;;;;17.90;7.60;;;-0.70;99.90;;;-1.23;100.00;96462.56;173199;28;1372;-78
2021/12/09 00:10:11;;;;;;;17.22;7.67;;;-0.70;99.90;;;-1.21;100.00;96466.75;172974;28;1520;-77
2021/12/09 00:10:17;;;;;;;15.99;7.59;;;-0.70;99.90;;;-1.24;100.00;96466.22;174111;28;1551;-78
2021/12/09 00:10:23;;;;;;;15.77;7.47;;;-0.70;99.90;;;-1.58;100.00;96415.63;173520;28;1310;-78
2021/12/09 00:10:29;;;;;;;15.70;7.43;;;-0.70;99.90;;;-1.65;100.00;96398.69;173860;28;1273;-78
2021/12/09 00:10:36;;;;;;;16.57;7.73;;;-0.70;99.90;;;-1.21;100.00;96469.41;174213;28;1253;-78
2021/12/09 00:10:42;;;;;;;17.00;7.67;;;-0.70;99.90;;;-1.19;100.00;96469.28;173056;28;1394;-78
2021/12/09 00:10:48;;;;;;;17.70;7.57;;;-0.70;99.90;;;-1.26;100.00;96460.22;172827;28;1323;-78
2021/12/09 00:10:59;;;;;;;17.97;7.83;;;-0.70;99.90;;;-1.21;100.00;96473.84;173154;28;1365;-78
2021/12/09 00:11:07;;;;;;;16.88;7.56;;;-0.70;99.90;;;-1.16;100.00;96471.63;173348;28;1373;-78
2021/12/09 00:11:14;;;;;;;15.26;7.38;;;-0.70;99.90;;;-1.23;100.00;96466.06;173770;28;1028;-76
2021/12/09 00:11:20;;;;;;;15.37;7.57;;;-0.70;99.90;;;-1.30;100.00;96449.13;174593;28;879;-77
2021/12/09 00:11:28;;;;;;;15.80;7.70;;;-0.70;99.90;;;-1.18;100.00;96477.03;173799;28;1059;-77
2021/12/09 00:11:46;;;;;;;16.56;7.87;;;-0.70;99.90;;;-1.30;100.00;96443.84;173013;28;1450;-77
2021/12/09 00:11:52;;;;;;;17.75;7.92;;;-0.70;99.90;;;-1.30;100.00;96446.47;173688;28;1312;-78
2021/12/09 00:11:59;;;;;;;17.66;7.70;;;-0.70;99.90;;;-1.17;100.00;96467.31;173782;28;1336;-78
2021/12/09 00:12:07;;;;;;;16.20;7.55;;;-0.70;99.90;;;-1.49;100.00;96417.44;172308;28;1450;-78
2021/12/09 00:12:13;;;;;;;16.28;7.72;;;-0.70;99.90;;;-1.31;100.00;96440.38;173749;28;1386;-77
2021/12/09 00:12:22;;;;;;;16.00;7.78;;;-0.70;99.90;;;-1.25;100.00;96465.38;175120;28;1417;-78
2021/12/09 00:12:28;;;;;;;16.19;7.57;;;-0.70;99.90;;;-1.14;100.00;96473.13;173209;28;1031;-78
2021/12/09 00:12:34;;;;;;;17.37;7.87;;;-0.70;99.90;;;-1.50;100.00;96416.59;172352;28;1236;-78
2021/12/09 00:12:40;;;;;;;16.50;7.77;;;-0.70;99.90;;;-1.17;100.00;96469.94;173155;28;1376;-78
2021/12/09 00:12:47;;;;;;;16.62;7.80;;;-0.70;99.90;;;-1.23;100.00;96457.28;173096;28;1398;-77
2021/12/09 00:12:53;;;;;;;15.80;7.73;;;-0.70;99.90;;;-1.36;100.00;96433.84;172627;28;1029;-77
2021/12/09 00:12:59;;;;;;;16.23;7.67;;;-0.70;99.90;;;-1.22;100.00;96458.97;173299;28;1317;-77
2021/12/09 00:13:07;;;;;;;15.60;7.60;;;-0.70;99.90;;;-1.23;100.00;96457.28;173102;28;1423;-78
2021/12/09 00:13:13;;;;;;;15.47;7.57;;;-0.70;99.90;;;-1.21;100.00;96458.00;173591;28;1374;-78
2021/12/09 00:13:20;;;;;;;15.93;7.43;;;-0.70;99.90;;;-1.18;100.00;96461.19;172966;28;1591;-77
2021/12/09 00:13:28;;;;;;;16.67;7.10;;;-0.70;99.90;;;-1.23;100.00;96458.13;173636;28;1584;-77
2021/12/09 00:13:35;;;;;;;17.09;7.04;;;-0.70;99.90;;;-1.21;100.00;96463.28;173139;28;2530;-77
2021/12/09 00:13:40;;;;;;;17.48;7.03;;;-0.70;99.90;;;-1.22;100.00;96461.59;173096;28;1448;-77
2021/12/09 00:13:47;;;;;;;17.25;7.00;;;-0.70;99.90;;;-1.53;100.00;96416.06;173548;28;942;-77
2021/12/09 00:13:54;;;;;;;16.43;7.27;;;-0.70;99.90;;;-1.34;100.00;96443.25;173721;28;1426;-77
2021/12/09 00:14:00;;;;;;;14.23;7.20;;;-0.70;99.90;;;-1.30;100.00;96443.84;173831;28;1349;-77
2021/12/09 00:14:06;;;;;;;14.27;7.20;;;-0.70;99.90;;;-1.23;100.00;96450.22;173213;28;1644;-78
2021/12/09 00:14:30;;;;;;;13.93;7.40;;;-0.70;99.90;;;-1.22;100.00;96454.53;173826;28;1645;-77
2021/12/09 00:14:36;;;;;;;15.60;7.81;;;-0.70;99.90;;;-1.22;100.00;96462.44;172899;28;1459;-77
2021/12/09 00:14:42;;;;;;;17.00;8.30;;;-0.70;99.90;;;-1.23;100.00;96460.78;173839;28;1677;-77
2021/12/09 00:14:48;;;;;;;16.70;8.25;;;-0.70;99.90;;;-1.27;100.00;96448.84;173437;28;1196;-77
2021/12/09 00:14:55;;;;;;;15.30;7.78;;;-0.70;99.90;;;-1.22;100.00;96456.31;172557;28;919;-77
2021/12/09 00:15:02;;;;;;;15.30;7.73;;;-0.70;99.90;;;-1.20;100.00;96465.78;172905;28;1905;-77
2021/12/09 00:15:10;;;;;;;15.28;7.60;;;-0.70;99.90;;;-1.33;100.00;96437.03;172806;28;1334;-77
2021/12/09 00:15:16;;;;;;;16.35;7.65;;;-0.70;99.90;;;-1.36;100.00;96431.19;173019;28;1556;-77
2021/12/09 00:15:22;;;;;;;16.65;7.43;;;-0.70;99.90;;;-1.32;100.00;96438.69;173015;28;1532;-77
2021/12/09 00:15:28;;;;;;;17.90;7.43;;;-0.70;99.90;;;-1.51;100.00;96411.47;173126;28;1016;-78
2021/12/09 00:15:35;;;;;;;19.33;7.50;;;-0.70;99.90;;;-1.29;100.00;96446.31;173979;28;827;-78
2021/12/09 00:15:41;;;;;;;18.73;7.60;;;-0.70;99.90;;;-1.17;100.00;96459.38;172238;28;1279;-78
2021/12/09 00:15:47;;;;;;;18.33;7.63;;;-0.70;99.90;;;-1.16;100.00;96463.69;173068;28;1271;-77
2021/12/09 00:15:54;;;;;;;17.40;7.62;;;-0.70;99.90;;;-1.17;100.00;96460.22;172993;28;938;-78
2021/12/09 00:16:01;;;;;;;16.26;7.72;;;-0.70;99.90;;;-1.19;100.00;96461.34;173807;28;1607;-78
2021/12/09 00:16:07;;;;;;;15.48;8.15;;;-0.70;99.90;;;-1.31;100.00;96442.16;173769;28;1134;-78
2021/12/09 00:16:13;;;;;;;15.45;8.20;;;-0.70;99.90;;;-1.32;100.00;96425.50;173928;28;954;-78
2021/12/09 00:16:19;;;;;;;15.97;7.90;;;-0.70;99.90;;;-1.21;100.00;96452.72;173675;28;1090;-77
2021/12/09 00:16:25;;;;;;;15.68;7.78;;;-0.70;99.90;;;-1.21;100.00;96458.00;173157;28;915;-77
2021/12/09 00:16:31;;;;;;;15.07;7.63;;;-0.70;99.90;;;-1.22;100.00;96456.31;173052;28;1285;-77
2021/12/09 00:16:37;;;;;;;14.18;7.40;;;-0.70;99.90;;;-1.13;100.00;96466.03;174201;28;1345;-78
2021/12/09 00:16:43;;;;;;;13.97;7.70;;;-0.70;99.90;;;-1.17;100.00;96468.13;173573;28;1463;-77
2021/12/09 00:16:53;;;;;;;14.73;7.97;;;-0.70;99.90;;;-1.20;100.00;96457.03;173144;28;1354;-77
2021/12/09 00:17:08;;;;;;;16.20;8.39;;;-0.70;99.90;;;-1.16;100.00;96461.06;173732;28;1067;-77
2021/12/09 00:17:14;;;;;;;19.17;8.21;;;-0.70;99.90;;;-1.31;100.00;96436.91;173517;28;1245;-77
2021/12/09 00:17:20;;;;;;;19.63;7.90;;;-0.70;99.90;;;-1.21;100.00;96452.72;173029;28;1271;-78
2021/12/09 00:17:26;;;;;;;19.27;7.82;;;-0.70;99.90;;;-1.21;100.00;96452.72;174294;28;1276;-78
2021/12/09 00:17:32;;;;;;;17.83;7.68;;;-0.70;99.90;;;-1.22;100.00;96451.03;173872;28;1530;-78
2021/12/09 00:17:39;;;;;;;15.98;7.75;;;-0.70;99.90;;;-1.25;100.00;96444.25;173449;28;1011;-78
2021/12/09 00:17:45;;;;;;;16.86;7.96;;;-0.70;99.90;;;-1.29;100.00;96445.47;175143;28;1431;-77
2021/12/09 00:17:51;;;;;;;15.47;7.87;;;-0.70;99.90;;;-1.21;100.00;96450.09;173861;28;1035;-77
2021/12/09 00:17:57;;;;;;;14.25;7.43;;;-0.70;99.90;;;-1.19;100.00;96464.00;173114;28;1258;-77
2021/12/09 00:18:03;;;;;;;14.20;7.67;;;-0.70;99.90;;;-1.30;100.00;96447.31;173680;28;1369;-77
2021/12/09 00:18:09;;;;;;;13.82;7.40;;;-0.70;99.90;;;-1.18;100.00;96468.28;173836;28;1103;-77
2021/12/09 00:18:16;;;;;;;13.90;7.15;;;-0.70;99.90;;;-1.29;100.00;96442.84;174641;28;1002;-78
2021/12/09 00:18:22;;;;;;;14.63;7.28;;;-0.70;99.90;;;-1.26;100.00;96449.66;174138;28;1081;-78
2021/12/09 00:18:28;;;;;;;15.38;7.54;;;-0.70;99.90;;;-1.23;100.00;96452.84;173044;28;1471;-77
2021/12/09 00:18:34;;;;;;;14.97;7.37;;;-0.70;99.90;;;-1.19;100.00;96458.72;173126;28;1071;-77
2021/12/09 00:18:40;;;;;;;14.85;7.32;;;-0.70;99.90;;;-1.27;100.00;96451.47;173155;28;903;-77
2021/12/09 00:18:46;;;;;;;15.27;7.22;;;-0.70;99.90;;;-1.43;100.00;96422.16;173005;28;1126;-78
2021/12/09 00:18:52;;;;;;;16.37;7.77;;;-0.70;99.90;;;-1.15;100.00;96465.38;173868;28;962;-78
2021/12/09 00:18:59;;;;;;;16.90;7.75;;;-0.70;99.90;;;-1.22;100.00;96453.69;173111;28;916;-77
2021/12/09 00:19:06;;;;;;;20.20;8.03;;;-0.70;99.90;;;-1.11;100.00;96469.38;172579;28;899;-77
2021/12/09 00:19:13;;;;;;;21.92;8.14;;;-0.70;99.90;;;-1.16;100.00;96466.34;173123;28;1123;-77
2021/12/09 00:19:20;;;;;;;22.28;8.42;;;-0.70;99.90;;;-1.25;100.00;96446.91;173114;28;860;-77
2021/12/09 00:19:27;;;;;;;23.20;8.12;;;-0.70;99.90;;;-1.14;100.00;96464.41;172583;28;1203;-77
2021/12/09 00:19:35;;;;;;;23.63;7.93;;;-0.70;99.90;;;-1.20;100.00;96457.03;172609;28;864;-77
2021/12/09 00:19:41;;;;;;;20.13;7.97;;;-0.70;99.90;;;-1.12;100.00;96468.56;172338;28;1395;-77
2021/12/09 00:19:47;;;;;;;21.48;8.00;;;-0.70;99.90;;;-1.19;100.00;96459.50;172473;28;1338;-77
2021/12/09 00:19:53;;;;;;;22.08;8.13;;;-0.70;99.90;;;-1.30;100.00;96446.47;173593;28;1385;-78
2021/12/09 00:19:59;;;;;;;21.27;7.83;;;-0.60;99.90;;;-1.34;100.00;96431.88;173205;28;938;-78
2021/12/09 00:20:07;;;;;;;21.38;7.90;;;-0.70;99.90;;;-1.17;100.00;96457.56;172508;28;1432;-77
2021/12/09 00:20:13;;;;;;;21.25;7.70;;;-0.70;99.90;;;-1.33;100.00;96436.19;172427;28;961;-77
2021/12/09 00:20:19;;;;;;;20.17;7.37;;;-0.70;99.90;;;-1.14;100.00;96467.84;173559;28;1417;-77
2021/12/09 00:20:25;;;;;;;18.20;7.32;;;-0.70;99.90;;;-1.24;100.00;96445.09;173762;28;1199;-77
2021/12/09 00:20:31;;;;;;;18.90;7.97;;;-0.70;99.90;;;-1.13;100.00;96473.97;172925;28;1440;-78
2021/12/09 00:20:37;;;;;;;17.17;8.15;;;-0.70;99.90;;;-1.19;100.00;96462.16;173880;28;1001;-77
2021/12/09 00:20:44;;;;;;;16.47;8.00;;;-0.70;99.90;;;-1.22;100.00;96451.88;173194;28;867;-78
2021/12/09 00:20:51;;;;;;;16.90;8.10;;;-0.70;99.90;;;-1.21;100.00;96456.19;174297;28;1452;-78
2021/12/09 00:20:57;;;;;;;15.44;7.86;;;-0.70;99.90;;;-1.18;100.00;96463.00;173848;28;1307;-77
2021/12/09 00:21:04;;;;;;;15.30;7.50;;;-0.70;99.90;;;-1.16;100.00;96463.69;174414;28;1277;-77
2021/12/09 00:21:11;;;;;;;15.82;7.42;;;-0.70;99.90;;;-1.30;100.00;96439.41;173809;28;1454;-78
2021/12/09 00:21:18;;;;;;;16.10;7.47;;;-0.70;99.90;;;-1.35;100.00;96436.31;173100;28;1235;-78
2021/12/09 00:21:23;;;;;;;15.74;7.38;;;-0.70;99.90;;;-1.19;100.00;96453.44;173173;28;1216;-77
2021/12/09 00:21:29;;;;;;;16.37;7.43;;;-0.70;99.90;;;-1.29;100.00;96445.47;173219;28;1172;-77
2021/12/09 00:21:35;;;;;;;16.92;7.55;;;-0.70;99.90;;;-1.44;100.00;96417.84;174026;28;1440;-77
2021/12/09 00:21:42;;;;;;;19.25;7.50;;;-0.70;99.90;;;-1.26;100.00;96442.59;174935;28;1317;-77
2021/12/09 00:21:48;;;;;;;19.50;7.60;;;-0.70;99.90;;;-1.13;100.00;96469.53;174504;28;1322;-77
2021/12/09 00:21:56;;;;;;;20.33;7.80;;;-0.70;99.90;;;-1.13;100.00;96460.75;173680;28;1082;-77
2021/12/09 00:22:11;;;;;;;19.75;7.68;;;-0.70;99.90;;;-1.14;100.00;96456.47;173058;28;1553;-77
2021/12/09 00:22:17;;;;;;;18.17;7.66;;;-0.70;99.90;;;-1.22;100.00;96441.31;173083;28;1352;-77
2021/12/09 00:22:23;;;;;;;18.37;7.53;;;-0.70;99.90;;;-1.16;100.00;96456.63;172630;28;1055;-77
2021/12/09 00:22:29;;;;;;;17.70;7.53;;;-0.70;99.90;;;-1.15;100.00;96458.28;173828;28;1481;-78
2021/12/09 00:22:35;;;;;;;17.25;7.55;;;-0.70;99.90;;;-1.33;100.00;96425.63;173743;28;1008;-78
2021/12/09 00:22:41;;;;;;;18.40;7.63;;;-0.70;99.90;;;-1.16;100.00;96455.78;174507;28;1211;-78
2021/12/09 00:22:47;;;;;;;17.33;7.40;;;-0.70;99.90;;;-1.19;100.00;96454.22;174545;28;1129;-78
2021/12/09 00:22:53;;;;;;;16.97;7.43;;;-0.70;99.90;;;-1.31;100.00;96428.97;174360;28;1261;-77
2021/12/09 00:22:59;;;;;;;17.83;7.65;;;-0.70;99.90;;;-1.16;100.00;96450.50;172983;28;1626;-77
2021/12/09 00:23:07;;;;;;;16.23;7.37;;;-0.70;99.90;;;-1.30;100.00;96428.00;173162;28;1226;-78
2021/12/09 00:23:13;;;;;;;14.87;7.17;;;-0.70;99.90;;;-1.16;100.00;96451.34;173984;28;1302;-78
2021/12/09 00:23:19;;;;;;;15.43;7.63;;;-0.70;99.90;;;-1.19;100.00;96448.94;173750;28;1405;-78
2021/12/09 00:23:25;;;;;;;15.30;7.77;;;-0.70;99.90;;;-1.24;100.00;96432.69;173083;28;1306;-78
2021/12/09 00:23:31;;;;;;;17.35;8.02;;;-0.70;99.90;;;-1.20;100.00;96442.03;173789;28;1285;-78
2021/12/09 00:23:38;;;;;;;19.80;8.53;;;-0.70;99.90;;;-1.14;100.00;96448.56;174203;28;1430;-78
2021/12/09 00:23:44;;;;;;;21.90;8.63;;;-0.70;99.90;;;-1.13;100.00;96453.69;173164;28;1519;-77
2021/12/09 00:23:50;;;;;;;21.40;8.32;;;-0.60;99.90;;;-1.09;100.00;96457.69;172920;28;1159;-77
2021/12/09 00:23:55;;;;;;;20.70;7.78;;;-0.70;99.90;;;-1.10;100.00;96458.69;173715;28;1289;-78
2021/12/09 00:24:02;;;;;;;18.92;7.57;;;-0.70;99.90;;;-1.11;100.00;96457.03;173838;28;1302;-77
2021/12/09 00:24:09;;;;;;;17.42;7.05;;;-0.60;99.90;;;-1.17;100.00;96441.72;173658;28;1127;-77
2021/12/09 00:24:16;;;;;;;15.00;6.80;;;-0.60;99.90;;;-1.24;100.00;96430.06;172535;28;836;-77
2021/12/09 00:24:23;;;;;;;15.30;6.76;;;-0.70;99.90;;;-1.11;100.00;96450.91;173169;28;1121;-78
2021/12/09 00:24:29;;;;;;;15.48;6.90;;;-0.70;99.90;;;-1.18;100.00;96441.88;174474;28;1364;-77
2021/12/09 00:24:35;;;;;;;14.80;6.80;;;-0.70;99.90;;;-1.22;100.00;96437.84;173376;28;1333;-77
2021/12/09 00:24:41;;;;;;;15.77;7.18;;;-0.70;99.90;;;-1.12;100.00;96446.59;174357;28;1471;-77
2021/12/09 00:24:47;;;;;;;15.73;7.27;;;-0.70;99.90;;;-1.20;100.00;96436.75;174350;28;1444;-77
2021/12/09 00:24:53;;;;;;;15.10;7.40;;;-0.70;99.90;;;-1.32;100.00;96419.38;173612;28;1348;-77
2021/12/09 00:24:59;;;;;;;15.13;7.25;;;-0.60;99.90;;;-1.15;100.00;96446.88;172963;28;1351;-77
2021/12/09 00:25:06;;;;;;;15.52;7.47;;;-0.60;99.90;;;-1.22;100.00;96437.84;173308;28;2315;-77
2021/12/09 00:25:13;;;;;;;14.80;7.30;;;-0.70;99.90;;;-1.19;100.00;96446.31;173839;28;1221;-77
2021/12/09 00:25:19;;;;;;;15.40;7.45;;;-0.70;99.90;;;-1.18;100.00;96440.06;174595;28;937;-77
2021/12/09 00:25:25;;;;;;;15.85;7.78;;;-0.70;99.90;;;-1.22;100.00;96438.69;173506;28;1373;-78
2021/12/09 00:25:31;;;;;;;16.33;8.00;;;-0.70;99.90;;;-1.21;100.00;96447.44;173871;28;1373;-78
2021/12/09 00:25:38;;;;;;;15.75;7.65;;;-0.70;99.90;;;-1.20;100.00;96449.13;173707;28;1342;-78
2021/12/09 00:25:45;;;;;;;15.85;7.78;;;-0.70;99.90;;;-1.14;100.00;96459.94;173801;28;1349;-78
2021/12/09 00:25:51;;;;;;;15.78;7.62;;;-0.60;99.90;;;-1.35;100.00;96424.94;174037;28;1095;-78
2021/12/09 00:25:57;;;;;;;16.58;7.70;;;-0.70;99.90;;;-1.33;100.00;96423.00;174603;28;992;-78
2021/12/09 00:26:04;;;;;;;16.67;7.75;;;-0.70;99.90;;;-1.23;100.00;96439.66;173734;28;971;-78
2021/12/09 00:26:10;;;;;;;17.80;7.93;;;-0.70;99.90;;;-1.18;100.00;96455.06;173960;28;998;-78
2021/12/09 00:26:16;;;;;;;18.30;8.05;;;-0.70;99.90;;;-1.20;100.00;96449.94;174486;28;1047;-78
2021/12/09 00:26:22;;;;;;;18.40;7.85;;;-0.70;99.90;;;-1.20;100.00;96446.47;174420;28;1306;-77
2021/12/09 00:26:28;;;;;;;18.33;7.65;;;-0.70;99.90;;;-1.35;100.00;96431.03;173176;28;1228;-77
2021/12/09 00:26:34;;;;;;;18.03;7.80;;;-0.70;99.90;;;-1.26;100.00;96442.59;172937;28;1531;-77
2021/12/09 00:26:43;;;;;;;18.02;8.02;;;-0.60;99.90;;;-1.24;100.00;96442.44;173682;28;1401;-78
2021/12/09 00:26:50;;;;;;;19.24;7.97;;;-0.70;99.90;;;-1.34;100.00;96434.50;173727;28;1370;-78
2021/12/09 00:26:56;;;;;;;18.60;7.97;;;-0.70;99.90;;;-1.26;100.00;96441.75;174435;28;1141;-77
2021/12/09 00:27:03;;;;;;;18.07;7.87;;;-0.70;99.90;;;-1.25;100.00;96449.53;173657;28;1315;-78
2021/12/09 00:27:09;;;;;;;19.17;7.73;;;-0.60;99.90;;;-1.29;100.00;96442.84;173088;28;1279;-77
2021/12/09 00:27:15;;;;;;;17.20;7.80;;;-0.70;99.90;;;-1.26;100.00;96450.50;173879;28;990;-77
2021/12/09 00:27:21;;;;;;;17.30;8.18;;;-0.70;99.90;;;-1.22;100.00;96457.16;173036;28;1304;-77
2021/12/09 00:27:27;;;;;;;17.92;8.20;;;-0.70;99.90;;;-1.26;100.00;96455.78;173650;28;1079;-77
2021/12/09 00:27:33;;;;;;;18.33;8.20;;;-0.70;99.90;;;-1.29;100.00;96448.97;174510;28;1322;-77
2021/12/09 00:27:39;;;;;;;17.38;8.30;;;-0.70;99.90;;;-1.23;100.00;96452.84;173197;28;1434;-77
2021/12/09 00:27:45;;;;;;;18.00;7.95;;;-0.70;99.90;;;-1.21;100.00;96452.72;173383;28;1419;-77
2021/12/09 00:27:52;;;;;;;17.38;7.63;;;-0.70;99.90;;;-1.30;100.00;96442.03;173002;28;1233;-77
2021/12/09 00:27:57;;;;;;;16.88;7.68;;;-0.70;99.90;;;-1.22;100.00;96456.31;173183;28;1798;-77
2021/12/09 00:28:05;;;;;;;15.25;7.53;;;-0.70;99.90;;;-1.19;100.00;96456.88;173825;28;978;-77
2021/12/09 00:28:11;;;;;;;13.53;7.27;;;-0.70;99.90;;;-1.39;100.00;96427.00;174260;28;1257;-76
2021/12/09 00:28:17;;;;;;;13.32;7.30;;;-0.70;99.90;;;-1.38;100.00;96427.84;174338;28;1094;-77
2021/12/09 00:28:23;;;;;;;13.37;7.17;;;-0.70;99.90;;;-1.57;100.00;96396.19;173848;28;1393;-77
2021/12/09 00:28:30;;;;;;;16.40;7.22;;;-0.70;99.90;;;-1.20;100.00;96457.88;173246;28;891;-77
2021/12/09 00:28:36;;;;;;;17.55;7.38;;;-0.70;99.90;;;-1.27;100.00;96437.44;173629;28;1403;-78
2021/12/09 00:28:42;;;;;;;17.70;7.13;;;-0.70;99.90;;;-1.20;100.00;96457.88;173680;28;1451;-78
2021/12/09 00:28:48;;;;;;;17.23;7.18;;;-0.70;99.90;;;-1.25;100.00;96453.97;174132;28;1305;-78
2021/12/09 00:28:54;;;;;;;16.70;6.90;;;-0.70;99.90;;;-1.25;100.00;96451.34;173864;28;1322;-78
2021/12/09 00:29:00;;;;;;;13.20;6.73;;;-0.70;99.90;;;-1.23;100.00;96450.22;173115;28;1000;-78
2021/12/09 00:29:07;;;;;;;12.40;6.82;;;-0.70;99.90;;;-1.27;100.00;96446.19;173936;28;867;-77
2021/12/09 00:29:15;;;;;;;12.60;7.00;;;-0.70;99.90;;;-1.23;100.00;96450.22;173080;28;1473;-77
2021/12/09 00:29:21;;;;;;;12.77;7.33;;;-0.70;99.90;;;-1.41;100.00;96423.69;173137;28;1310;-77
2021/12/09 00:29:27;;;;;;;13.93;7.75;;;-0.70;99.90;;;-1.35;100.00;96430.22;173600;28;1003;-77
2021/12/09 00:29:33;;;;;;;14.77;7.93;;;-0.70;99.90;;;-1.22;100.00;96451.03;173203;28;1387;-77
2021/12/09 00:29:39;;;;;;;16.13;8.07;;;-0.70;99.90;;;-1.30;100.00;96439.41;172410;28;1449;-77
2021/12/09 00:29:45;;;;;;;15.80;8.10;;;-0.70;99.90;;;-1.24;100.00;96448.53;173144;28;1422;-78
2021/12/09 00:29:51;;;;;;;15.40;8.07;;;-0.70;99.90;;;-1.57;100.00;96397.03;173707;28;1433;-78
2021/12/09 00:29:57;;;;;;;14.67;7.73;;;-0.70;99.90;;;-1.31;100.00;96434.25;173195;28;1278;-78
2021/12/09 00:30:05;;;;;;;15.10;7.57;;;-0.70;99.90;;;-1.34;100.00;96432.72;174218;28;1207;-78
2021/12/09 00:30:13;;;;;;;14.61;7.24;;;-0.70;99.90;;;-1.23;100.00;96452.00;173350;28;1416;-78
2021/12/09 00:30:20;;;;;;;17.33;7.20;;;-0.70;99.90;;;-1.33;100.00;96430.91;174890;28;1427;-77
2021/12/09 00:30:28;;;;;;;17.97;7.10;;;-0.70;99.90;;;-1.24;100.00;96437.97;174007;28;882;-77